Time;durP1;ratioP1;P1;durP2;ratioP2;P2;SDS_P1;SDS_P2;PMS_P1;PMS_P2;Temp;Humidity;BMP_temperature;BMP_pressure;BME280_temperature;BME280_humidity;BME280_pressure;Samples;Min_cycle;Max_cycle;Signal;HPM_P1;HPM_P2
2023/02/18 00:01:30;;;;;;;14.15;2.78;;;9.00;99.90;;;;;;4994650;28;92541;-76
2023/02/18 00:03:59;;;;;;;10.35;2.33;;;9.00;99.90;;;;;;4996014;28;93330;-76
2023/02/18 00:06:30;;;;;;;11.88;3.15;;;9.00;99.90;;;;;;4978292;28;103423;-76
2023/02/18 00:09:00;;;;;;;9.57;2.53;;;9.00;99.90;;;;;;4996531;28;92475;-76
2023/02/18 00:11:29;;;;;;;9.23;2.28;;;9.00;99.90;;;;;;4995231;28;93387;-76
2023/02/18 00:14:00;;;;;;;15.55;2.65;;;9.10;99.90;;;;;;4994892;28;95355;-76
2023/02/18 00:16:28;;;;;;;10.80;2.15;;;9.10;99.90;;;;;;4996342;28;94305;-76
2023/02/18 00:19:01;;;;;;;10.60;2.83;;;9.10;99.90;;;;;;4994569;28;92483;-76
2023/02/18 00:21:29;;;;;;;10.02;2.20;;;9.10;99.90;;;;;;4995358;28;93275;-76
2023/02/18 00:23:57;;;;;;;9.95;2.83;;;9.20;99.90;;;;;;4994084;28;96211;-76
2023/02/18 00:26:24;;;;;;;11.07;2.47;;;9.20;99.90;;;;;;4977689;28;105288;-76
2023/02/18 00:28:54;;;;;;;6.78;2.17;;;9.20;99.90;;;;;;4994613;28;92573;-76
2023/02/18 00:31:25;;;;;;;8.65;2.42;;;9.20;99.90;;;;;;4996381;28;91750;-75
2023/02/18 00:33:53;;;;;;;18.60;2.33;;;9.20;99.90;;;;;;5027779;28;95127;-75
2023/02/18 00:36:21;;;;;;;11.98;2.20;;;9.20;99.90;;;;;;4994474;28;92862;-75
2023/02/18 00:38:50;;;;;;;10.00;2.28;;;9.20;99.90;;;;;;4977163;28;94822;-75
2023/02/18 00:41:18;;;;;;;13.40;3.40;;;9.30;99.90;;;;;;4994453;28;92719;-75
2023/02/18 00:43:46;;;;;;;11.93;3.00;;;9.30;99.90;;;;;;4994221;28;96253;-75
2023/02/18 00:46:16;;;;;;;13.20;3.53;;;9.20;99.90;;;;;;4994130;28;96057;-75
2023/02/18 00:48:43;;;;;;;9.55;2.45;;;9.20;99.90;;;;;;4994743;28;92562;-75
2023/02/18 00:51:11;;;;;;;9.73;2.38;;;9.10;99.90;;;;;;4994069;28;92533;-76
2023/02/18 00:53:38;;;;;;;10.65;2.22;;;9.10;99.90;;;;;;4977867;28;96229;-76
2023/02/18 00:56:06;;;;;;;9.77;2.35;;;9.00;99.90;;;;;;4994424;28;92127;-76
2023/02/18 00:58:35;;;;;;;11.02;2.17;;;8.90;99.90;;;;;;4994500;28;92466;-76
2023/02/18 01:01:05;;;;;;;14.77;2.90;;;8.90;99.90;;;;;;4993831;28;92549;-75
2023/02/18 01:03:34;;;;;;;14.40;2.88;;;8.80;99.90;;;;;;4994170;28;95698;-76
2023/02/18 01:06:02;;;;;;;14.35;2.55;;;8.70;99.90;;;;;;4994017;28;95287;-76
2023/02/18 01:08:32;;;;;;;12.75;3.20;;;8.70;99.90;;;;;;4994174;28;92430;-77
2023/02/18 01:10:59;;;;;;;9.32;2.25;;;8.60;99.90;;;;;;4995126;28;93683;-75
2023/02/18 01:13:27;;;;;;;14.52;3.30;;;8.50;99.90;;;;;;4977536;28;95572;-75
2023/02/18 01:15:54;;;;;;;10.02;2.17;;;8.50;99.90;;;;;;4993933;28;95158;-76
2023/02/18 01:18:23;;;;;;;11.05;2.58;;;8.40;99.90;;;;;;4977831;28;92950;-76
2023/02/18 01:20:50;;;;;;;17.27;2.78;;;8.50;99.90;;;;;;4995638;28;91747;-76
2023/02/18 01:23:17;;;;;;;16.98;3.35;;;8.50;99.90;;;;;;5010287;28;95765;-76
2023/02/18 01:25:45;;;;;;;13.82;3.17;;;8.50;99.90;;;;;;4995357;28;92948;-76
2023/02/18 01:28:13;;;;;;;7.55;2.58;;;8.50;99.90;;;;;;4993969;28;94844;-76
2023/02/18 01:30:41;;;;;;;14.07;2.55;;;8.50;99.90;;;;;;4995173;28;92502;-76
2023/02/18 01:33:08;;;;;;;9.50;2.72;;;8.50;99.90;;;;;;4994948;28;93470;-76
2023/02/18 01:35:38;;;;;;;8.57;2.55;;;8.50;99.90;;;;;;4993700;28;95704;-76
2023/02/18 01:38:07;;;;;;;12.55;2.88;;;8.50;99.90;;;;;;4993755;28;92535;-76
2023/02/18 01:40:34;;;;;;;12.65;2.78;;;8.70;99.90;;;;;;4993738;28;92925;-76
2023/02/18 01:43:02;;;;;;;11.65;2.60;;;8.70;99.90;;;;;;4977010;28;96420;-76
2023/02/18 01:45:37;;;;;;;14.77;3.15;;;8.70;99.90;;;;;;4995073;28;93109;-76
2023/02/18 01:48:24;;;;;;;11.05;2.80;;;8.90;99.90;;;;;;4993583;28;92536;-76
2023/02/18 01:51:09;;;;;;;18.75;3.22;;;9.00;99.90;;;;;;5027160;28;93081;-76
2023/02/18 01:53:43;;;;;;;13.13;3.63;;;9.00;99.90;;;;;;4975527;28;98430;-76
2023/02/18 01:56:13;;;;;;;14.25;3.35;;;9.00;99.90;;;;;;4993027;28;97876;-76
2023/02/18 01:58:42;;;;;;;13.32;3.65;;;9.10;99.90;;;;;;4993688;28;92454;-76
2023/02/18 02:01:09;;;;;;;8.98;2.60;;;9.10;99.90;;;;;;4993157;28;92580;-76
2023/02/18 02:03:36;;;;;;;9.88;3.03;;;9.20;99.90;;;;;;4976976;28;96004;-76
2023/02/18 02:06:13;;;;;;;11.50;3.03;;;9.20;99.90;;;;;;4994299;28;93050;-76
2023/02/18 02:08:40;;;;;;;14.55;3.03;;;9.30;99.90;;;;;;4995092;28;92437;-76
2023/02/18 02:11:45;;;;;;;9.25;3.05;;;9.30;99.90;;;;;;4960780;28;91887;-76
2023/02/18 02:14:39;;;;;;;11.95;3.03;;;9.40;99.90;;;;;;4994455;28;93305;-76
2023/02/18 02:17:09;;;;;;;;;;;9.40;99.90;;;;;;4995019;28;93071;-76
2023/02/18 02:19:56;;;;;;;14.48;4.85;;;9.30;99.90;;;;;;5010969;28;94950;-76
2023/02/18 02:23:06;;;;;;;10.95;3.35;;;9.40;99.90;;;;;;4982342;28;92618;-76
2023/02/18 02:25:51;;;;;;;16.60;3.70;;;9.50;99.90;;;;;;4996381;28;95867;-76
2023/02/18 02:28:39;;;;;;;15.35;3.92;;;9.50;99.90;;;;;;4997763;28;93519;-76
2023/02/18 02:31:31;;;;;;;15.38;3.85;;;9.50;99.90;;;;;;4979473;28;92453;-76
2023/02/18 02:34:31;;;;;;;14.00;3.75;;;9.50;99.90;;;;;;4980018;28;92557;-76
2023/02/18 02:37:11;;;;;;;10.80;3.60;;;9.50;99.90;;;;;;4996172;28;95754;-76
2023/02/18 02:39:50;;;;;;;14.23;4.63;;;9.50;99.90;;;;;;5029983;28;95771;-76
2023/02/18 02:42:35;;;;;;;14.10;4.63;;;9.50;99.90;;;;;;4980202;28;92392;-76
2023/02/18 02:45:23;;;;;;;14.77;5.13;;;9.50;99.90;;;;;;5029758;28;92560;-76
2023/02/18 02:48:09;;;;;;;15.27;5.78;;;9.50;99.90;;;;;;4977967;28;97682;-76
2023/02/18 02:50:35;;;;;;;20.88;6.60;;;9.50;99.90;;;;;;4996083;28;97932;-76
2023/02/18 02:53:19;;;;;;;17.45;7.18;;;9.50;99.90;;;;;;4997418;28;92443;-76
2023/02/18 02:55:46;;;;;;;17.60;6.90;;;9.60;99.90;;;;;;4996308;28;92532;-76
2023/02/18 02:58:18;;;;;;;21.73;7.60;;;9.60;99.90;;;;;;4995515;28;95944;-76
2023/02/18 03:01:13;;;;;;;18.33;7.28;;;9.60;99.90;;;;;;5028985;28;95705;-76
2023/02/18 03:03:47;;;;;;;19.25;7.57;;;9.70;99.90;;;;;;4979474;28;92534;-76
2023/02/18 03:06:51;;;;;;;19.13;7.67;;;9.70;99.90;;;;;;4979840;28;91847;-76
2023/02/18 03:09:45;;;;;;;;;;;9.70;99.90;;;;;;4995938;28;95324;-76
2023/02/18 03:12:31;;;;;;;20.45;7.20;;;9.60;99.90;;;;;;4995935;28;92827;-76
2023/02/18 03:15:09;;;;;;;20.50;7.65;;;9.70;99.90;;;;;;5028088;28;95148;-76
2023/02/18 03:18:00;;;;;;;19.20;8.77;;;9.70;99.90;;;;;;4995763;28;92613;-75
2023/02/18 03:20:36;;;;;;;17.65;7.57;;;9.80;99.90;;;;;;4995298;28;95529;-75
2023/02/18 03:23:09;;;;;;;15.65;7.50;;;9.80;99.90;;;;;;5029141;28;95854;-75
2023/02/18 03:25:38;;;;;;;;;;;9.80;99.90;;;;;;4995917;28;93031;-75
2023/02/18 03:28:10;;;;;;;15.93;7.10;;;9.80;99.90;;;;;;4996884;28;92516;-75
2023/02/18 03:30:47;;;;;;;17.98;7.78;;;9.80;99.90;;;;;;4978421;28;95999;-75
2023/02/18 03:33:20;;;;;;;16.35;7.15;;;9.80;99.90;;;;;;5029148;28;95040;-75
2023/02/18 03:35:49;;;;;;;16.75;7.43;;;9.90;99.90;;;;;;4995561;28;92498;-75
2023/02/18 03:38:22;;;;;;;17.80;8.15;;;9.90;99.90;;;;;;4995408;28;92951;-75
2023/02/18 03:40:49;;;;;;;13.98;6.38;;;10.00;99.90;;;;;;4977440;28;98492;-75
2023/02/18 03:43:17;;;;;;;18.55;7.05;;;10.00;99.90;;;;;;4978503;28;97751;-75
2023/02/18 03:45:44;;;;;;;16.50;6.60;;;10.00;99.90;;;;;;4995347;28;92556;-75
2023/02/18 03:48:11;;;;;;;15.57;6.63;;;10.00;99.90;;;;;;4978928;28;92632;-75
2023/02/18 03:50:38;;;;;;;11.90;5.88;;;10.00;99.90;;;;;;4996271;28;92806;-75
2023/02/18 03:53:05;;;;;;;15.65;5.97;;;10.00;99.90;;;;;;4996688;28;92914;-75
2023/02/18 03:55:32;;;;;;;16.48;6.97;;;10.10;99.90;;;;;;4978803;28;92473;-75
2023/02/18 03:57:59;;;;;;;14.52;6.15;;;10.10;99.90;;;;;;4995770;28;91866;-75
2023/02/18 04:00:26;;;;;;;11.82;6.60;;;10.10;99.90;;;;;;4994820;28;93524;-75
2023/02/18 04:02:53;;;;;;;14.65;7.05;;;10.10;99.90;;;;;;4995017;28;93541;-75
2023/02/18 04:05:20;;;;;;;14.32;6.70;;;10.10;99.90;;;;;;4994957;28;94905;-76
2023/02/18 04:07:47;;;;;;;13.90;7.72;;;10.20;99.90;;;;;;4994939;28;92485;-75
2023/02/18 04:10:14;;;;;;;11.90;7.22;;;10.20;99.90;;;;;;4994690;28;94967;-76
2023/02/18 04:12:41;;;;;;;18.35;7.68;;;10.20;99.90;;;;;;4995904;28;97797;-75
2023/02/18 04:15:08;;;;;;;18.92;9.57;;;10.20;99.90;;;;;;4978719;28;92603;-76
2023/02/18 04:17:35;;;;;;;17.58;9.77;;;10.30;99.90;;;;;;4978070;28;93315;-76
2023/02/18 04:20:03;;;;;;;23.45;10.18;;;10.30;99.90;;;;;;4996042;28;93430;-76
2023/02/18 04:22:32;;;;;;;17.98;11.13;;;10.30;99.90;;;;;;4978126;28;92004;-76
2023/02/18 04:24:59;;;;;;;19.52;10.98;;;10.30;99.90;;;;;;4994001;28;92417;-75
2023/02/18 04:27:26;;;;;;;25.05;12.35;;;10.30;99.90;;;;;;4994211;28;92989;-76
2023/02/18 04:29:53;;;;;;;27.25;12.43;;;10.30;99.90;;;;;;4992988;28;96052;-75
2023/02/18 04:32:20;;;;;;;29.00;13.07;;;10.30;99.90;;;;;;4977195;28;98189;-75
2023/02/18 04:34:47;;;;;;;27.00;13.38;;;10.40;99.90;;;;;;4977457;28;92536;-75
2023/02/18 04:37:14;;;;;;;24.10;14.88;;;10.40;99.90;;;;;;4977832;28;92963;-77
2023/02/18 04:39:41;;;;;;;31.27;14.55;;;10.40;99.90;;;;;;4995046;28;93326;-75
2023/02/18 04:42:09;;;;;;;31.45;15.57;;;10.40;99.90;;;;;;4993237;28;92458;-75
2023/02/18 04:44:36;;;;;;;33.08;16.48;;;10.40;99.90;;;;;;4977031;28;92553;-75
2023/02/18 04:47:07;;;;;;;34.00;15.98;;;10.40;99.90;;;;;;4994263;28;91824;-75
2023/02/18 04:49:34;;;;;;;32.65;16.95;;;10.50;99.90;;;;;;4977001;28;95773;-75
2023/02/18 04:52:01;;;;;;;38.72;19.38;;;10.50;99.90;;;;;;4977182;28;101856;-75
2023/02/18 04:54:29;;;;;;;36.50;19.27;;;10.50;99.90;;;;;;4993875;28;94906;-75
2023/02/18 04:56:56;;;;;;;44.80;20.48;;;10.50;99.90;;;;;;4993648;28;92925;-76
2023/02/18 04:59:23;;;;;;;38.85;20.80;;;10.50;99.90;;;;;;4994881;28;93169;-75
2023/02/18 05:01:50;;;;;;;43.55;22.17;;;10.50;99.90;;;;;;4993018;28;95807;-75
2023/02/18 05:04:17;;;;;;;50.17;22.65;;;10.50;99.90;;;;;;4993929;28;92873;-75
2023/02/18 05:06:44;;;;;;;52.33;22.60;;;10.50;99.90;;;;;;4977145;28;92530;-75
2023/02/18 05:09:12;;;;;;;39.95;21.00;;;10.60;99.90;;;;;;4993754;28;93349;-75
2023/02/18 05:11:40;;;;;;;41.10;22.50;;;10.60;99.90;;;;;;4994757;28;93115;-75
2023/02/18 05:14:07;;;;;;;45.42;22.20;;;10.60;99.90;;;;;;4993448;28;92569;-75
2023/02/18 05:16:34;;;;;;;45.95;23.45;;;10.60;99.90;;;;;;4993205;28;92491;-75
2023/02/18 05:19:01;;;;;;;56.83;24.95;;;10.60;99.90;;;;;;4992137;28;98317;-75
2023/02/18 05:21:28;;;;;;;55.65;24.27;;;10.60;99.90;;;;;;4994382;28;95837;-76
2023/02/18 05:23:56;;;;;;;59.13;25.25;;;10.60;99.90;;;;;;4994851;28;92453;-76
2023/02/18 05:26:23;;;;;;;53.25;24.52;;;10.60;99.90;;;;;;4994480;28;92425;-75
2023/02/18 05:28:50;;;;;;;53.25;25.85;;;10.60;99.90;;;;;;4994355;28;93369;-75
2023/02/18 05:31:17;;;;;;;60.38;25.85;;;10.60;99.90;;;;;;4977098;28;93092;-75
2023/02/18 05:33:44;;;;;;;63.53;26.40;;;10.60;99.90;;;;;;4977005;28;92521;-75
2023/02/18 05:36:11;;;;;;;62.28;26.10;;;10.60;99.90;;;;;;4993829;28;91719;-75
2023/02/18 05:38:38;;;;;;;63.67;28.48;;;10.60;99.90;;;;;;4992965;28;93700;-75
2023/02/18 05:41:05;;;;;;;66.60;27.20;;;10.60;99.90;;;;;;4994020;28;99638;-75
2023/02/18 05:44:29;;;;;;;63.97;27.48;;;10.60;99.90;;;;;;4993203;28;94778;-75
2023/02/18 05:46:19;;;;;;;73.88;28.48;;;10.60;99.90;;;;;;4992478;28;92480;-76
2023/02/18 05:48:46;;;;;;;62.20;27.00;;;10.60;99.90;;;;;;4994305;28;93088;-76
2023/02/18 05:51:14;;;;;;;66.72;27.63;;;10.60;99.90;;;;;;4992722;28;95751;-76
2023/02/18 05:53:41;;;;;;;69.45;28.60;;;10.60;99.90;;;;;;4994034;28;92996;-75
2023/02/18 05:56:08;;;;;;;64.07;26.15;;;10.60;99.90;;;;;;4997832;28;92343;-76
2023/02/18 05:58:35;;;;;;;66.05;26.20;;;10.60;99.90;;;;;;4996359;28;95492;-76
2023/02/18 06:01:03;;;;;;;60.13;25.75;;;10.60;99.90;;;;;;4997399;28;93071;-76
2023/02/18 06:03:32;;;;;;;66.35;25.40;;;10.60;99.90;;;;;;4997972;28;92436;-76
2023/02/18 06:06:02;;;;;;;59.42;25.00;;;10.60;99.90;;;;;;4996044;28;92577;-76
2023/02/18 06:08:29;;;;;;;64.82;25.73;;;10.60;99.90;;;;;;4978461;28;95599;-76
2023/02/18 06:10:56;;;;;;;68.80;26.42;;;10.60;99.90;;;;;;4995750;28;98143;-76
2023/02/18 06:13:23;;;;;;;56.58;24.52;;;10.60;99.90;;;;;;4980032;28;92916;-76
2023/02/18 06:15:51;;;;;;;57.83;23.65;;;10.60;99.90;;;;;;4997351;28;93103;-76
2023/02/18 06:18:18;;;;;;;71.13;23.98;;;10.60;99.90;;;;;;4979468;28;96123;-76
2023/02/18 06:20:46;;;;;;;61.05;22.38;;;10.60;99.90;;;;;;4995871;28;93188;-76
2023/02/18 06:23:14;;;;;;;52.42;20.58;;;10.60;99.90;;;;;;4996143;28;92437;-76
2023/02/18 06:25:41;;;;;;;50.88;18.80;;;10.60;99.90;;;;;;4979645;28;91822;-75
2023/02/18 06:28:08;;;;;;;54.15;18.48;;;10.50;99.90;;;;;;4997203;28;92468;-76
2023/02/18 06:30:35;;;;;;;48.08;17.15;;;10.60;99.90;;;;;;4997255;28;93088;-76
2023/02/18 06:33:05;;;;;;;40.30;14.88;;;10.60;99.90;;;;;;4995999;28;94882;-76
2023/02/18 06:35:32;;;;;;;44.13;14.52;;;10.60;99.90;;;;;;4980159;28;92571;-76
2023/02/18 06:38:01;;;;;;;37.58;14.23;;;10.60;99.90;;;;;;4995522;28;93087;-76
2023/02/18 06:40:28;;;;;;;30.85;12.07;;;10.60;99.90;;;;;;4979512;28;92979;-75
2023/02/18 06:42:55;;;;;;;32.92;12.13;;;10.60;99.90;;;;;;4995820;28;92543;-76
2023/02/18 06:45:22;;;;;;;26.38;10.35;;;10.60;99.90;;;;;;4995924;28;92540;-76
2023/02/18 06:47:49;;;;;;;26.35;10.15;;;10.70;99.90;;;;;;4995065;28;99529;-76
2023/02/18 06:50:18;;;;;;;20.73;8.85;;;10.70;99.90;;;;;;4982410;28;93400;-76
2023/02/18 06:52:45;;;;;;;18.42;8.65;;;10.70;99.90;;;;;;4977393;28;92503;-76
2023/02/18 06:55:12;;;;;;;14.77;7.43;;;10.80;99.90;;;;;;4977816;28;92445;-76
2023/02/18 06:57:39;;;;;;;17.27;7.70;;;10.80;99.90;;;;;;4976073;28;95947;-76
2023/02/18 07:00:07;;;;;;;14.75;7.05;;;10.80;99.90;;;;;;4977206;28;95226;-76
2023/02/18 07:02:34;;;;;;;12.40;6.85;;;10.80;99.90;;;;;;4943010;28;92541;-76
2023/02/18 07:05:01;;;;;;;9.68;6.00;;;10.90;99.90;;;;;;4959171;28;92762;-76
2023/02/18 07:07:28;;;;;;;11.40;6.38;;;10.90;99.90;;;;;;4959653;28;96049;-76
2023/02/18 07:09:55;;;;;;;11.35;5.90;;;10.90;99.90;;;;;;4975138;28;112125;-76
2023/02/18 07:12:22;;;;;;;11.98;6.10;;;10.90;99.90;;;;;;4976246;28;92479;-76
2023/02/18 07:14:55;;;;;;;10.90;6.45;;;10.90;99.90;;;;;;4961145;28;91831;-76
2023/02/18 07:17:22;;;;;;;12.25;5.93;;;10.90;99.90;;;;;;4959746;28;93294;-76
2023/02/18 07:19:49;;;;;;;9.07;6.32;;;11.00;99.90;;;;;;4959403;28;94822;-76
2023/02/18 07:22:16;;;;;;;11.00;6.47;;;11.00;99.90;;;;;;4976374;28;95405;-76
2023/02/18 07:24:43;;;;;;;12.73;6.78;;;11.00;99.90;;;;;;4975575;28;92545;-76
2023/02/18 07:27:10;;;;;;;11.73;7.78;;;11.00;99.90;;;;;;4975626;28;93729;-76
2023/02/18 07:29:37;;;;;;;15.85;9.50;;;11.00;99.90;;;;;;4976754;28;93440;-76
2023/02/18 07:32:04;;;;;;;15.25;9.57;;;11.10;99.90;;;;;;4959577;28;92846;-76
2023/02/18 07:34:31;;;;;;;14.43;9.30;;;11.10;99.90;;;;;;4976998;28;92483;-76
2023/02/18 07:36:59;;;;;;;17.60;9.93;;;11.10;99.90;;;;;;4959025;28;96207;-76
2023/02/18 07:39:26;;;;;;;15.40;10.98;;;11.10;99.90;;;;;;4959451;28;95597;-76
2023/02/18 07:41:53;;;;;;;18.38;11.60;;;11.20;99.90;;;;;;4975031;28;92902;-76
2023/02/18 07:44:22;;;;;;;17.13;10.48;;;11.20;99.90;;;;;;4959041;28;92609;-76
2023/02/18 07:46:49;;;;;;;18.40;12.00;;;11.30;99.90;;;;;;4973505;28;95377;-76
2023/02/18 07:49:16;;;;;;;21.83;12.55;;;11.30;99.90;;;;;;4975875;28;95240;-76
2023/02/18 07:51:47;;;;;;;14.52;10.32;;;11.30;99.90;;;;;;4976300;28;92496;-76
2023/02/18 07:54:14;;;;;;;15.18;9.13;;;11.40;99.90;;;;;;4975095;28;92563;-76
2023/02/18 07:56:42;;;;;;;16.27;10.32;;;11.40;99.90;;;;;;4974968;28;96123;-76
2023/02/18 07:59:10;;;;;;;15.88;10.57;;;11.40;99.90;;;;;;4974336;28;93165;-76
2023/02/18 08:01:37;;;;;;;15.70;10.10;;;11.40;99.90;;;;;;4975430;28;92514;-76
2023/02/18 08:04:04;;;;;;;13.15;9.98;;;11.40;99.90;;;;;;4975271;28;92379;-76
2023/02/18 08:06:37;;;;;;;14.10;10.07;;;11.40;99.90;;;;;;4974272;28;96237;-75
2023/02/18 08:09:04;;;;;;;14.27;9.60;;;11.40;99.90;;;;;;4975222;28;92636;-75
2023/02/18 08:11:32;;;;;;;15.43;9.43;;;11.40;99.90;;;;;;4975286;28;94762;-75
2023/02/18 08:14:02;;;;;;;15.05;10.48;;;11.40;99.90;;;;;;4974819;28;92511;-76
2023/02/18 08:16:30;;;;;;;14.70;9.57;;;11.40;99.90;;;;;;4957746;28;93539;-76
2023/02/18 08:18:57;;;;;;;11.93;8.85;;;11.40;99.90;;;;;;4975491;28;92364;-76
2023/02/18 08:21:25;;;;;;;13.40;8.57;;;11.50;99.90;;;;;;4958755;28;92404;-76
2023/02/18 08:23:52;;;;;;;12.95;8.18;;;11.50;99.90;;;;;;4958359;28;92529;-76
2023/02/18 08:26:20;;;;;;;16.27;8.52;;;11.50;99.90;;;;;;4958153;28;95957;-76
2023/02/18 08:28:47;;;;;;;13.75;9.63;;;11.60;99.90;;;;;;4974861;28;92890;-76
2023/02/18 08:31:20;;;;;;;14.45;7.90;;;11.50;99.90;;;;;;4976047;28;92349;-76
2023/02/18 08:33:48;;;;;;;14.57;7.13;;;11.60;99.90;;;;;;4976003;28;92395;-76
2023/02/18 08:36:15;;;;;;;11.05;8.18;;;11.50;99.90;;;;;;4973309;28;95725;-76
2023/02/18 08:38:42;;;;;;;11.70;7.63;;;11.60;99.90;;;;;;4974752;28;99883;-76
2023/02/18 08:41:09;;;;;;;12.88;8.23;;;11.50;99.90;;;;;;4974532;28;93425;-76
2023/02/18 08:43:36;;;;;;;10.20;7.45;;;11.50;99.90;;;;;;4975805;28;92425;-76
2023/02/18 08:46:04;;;;;;;13.55;7.97;;;11.50;99.90;;;;;;4958149;28;93360;-76
2023/02/18 08:48:31;;;;;;;13.35;7.97;;;11.50;99.90;;;;;;4958496;28;93087;-76
2023/02/18 08:50:59;;;;;;;14.63;8.65;;;11.60;99.90;;;;;;4974222;28;92559;-76
2023/02/18 08:53:26;;;;;;;13.27;8.23;;;11.60;99.90;;;;;;4974783;28;91857;-76
2023/02/18 08:55:53;;;;;;;14.85;7.93;;;11.60;99.90;;;;;;4975580;28;93675;-76
2023/02/18 08:58:20;;;;;;;12.55;8.05;;;11.60;99.90;;;;;;4975730;28;92705;-76
2023/02/18 09:00:47;;;;;;;11.88;7.75;;;11.70;99.90;;;;;;4973674;28;94879;-76
2023/02/18 09:03:15;;;;;;;11.10;8.02;;;11.70;99.90;;;;;;4957148;28;93216;-76
2023/02/18 09:05:42;;;;;;;13.65;7.95;;;11.70;99.90;;;;;;4975609;28;93723;-76
2023/02/18 09:08:09;;;;;;;13.80;8.25;;;11.70;99.90;;;;;;4974024;28;93140;-76
2023/02/18 09:10:38;;;;;;;13.27;8.82;;;11.70;99.90;;;;;;4974506;28;92543;-76
2023/02/18 09:13:05;;;;;;;14.15;8.18;;;11.70;99.90;;;;;;4974263;28;92603;-76
2023/02/18 09:15:32;;;;;;;13.43;8.13;;;11.70;99.90;;;;;;4975564;28;93328;-76
2023/02/18 09:17:59;;;;;;;13.07;7.38;;;11.70;99.90;;;;;;4975362;28;93382;-76
2023/02/18 09:20:27;;;;;;;13.38;8.02;;;11.80;99.90;;;;;;4975748;28;92464;-76
2023/02/18 09:22:54;;;;;;;12.50;7.43;;;11.80;99.90;;;;;;4974216;28;93127;-76
2023/02/18 09:25:21;;;;;;;13.88;7.65;;;11.90;99.90;;;;;;4956544;28;95561;-76
2023/02/18 09:27:49;;;;;;;11.70;7.22;;;11.90;99.90;;;;;;4973872;28;98315;-76
2023/02/18 09:30:16;;;;;;;10.00;6.78;;;11.90;99.90;;;;;;4978596;28;93109;-76
2023/02/18 09:32:43;;;;;;;9.82;6.03;;;11.90;99.90;;;;;;4979050;28;92470;-76
2023/02/18 09:35:10;;;;;;;8.88;5.28;;;11.90;99.90;;;;;;4944171;28;95939;-76
2023/02/18 09:37:38;;;;;;;8.55;4.35;;;11.80;99.90;;;;;;4977520;28;93086;-76
2023/02/18 09:40:06;;;;;;;6.70;4.40;;;11.80;99.90;;;;;;4978630;28;92466;-76
2023/02/18 09:42:34;;;;;;;9.40;4.78;;;11.80;99.90;;;;;;4977790;28;91845;-76
2023/02/18 09:45:05;;;;;;;8.25;4.55;;;11.80;99.90;;;;;;4978369;28;93374;-77
2023/02/18 09:47:35;;;;;;;7.35;4.13;;;11.80;99.90;;;;;;4976888;28;96007;-76
2023/02/18 09:50:20;;;;;;;6.35;3.40;;;11.70;99.90;;;;;;4976193;28;95451;-76
2023/02/18 09:52:48;;;;;;;7.47;3.70;;;11.80;99.90;;;;;;4978663;28;92459;-76
2023/02/18 09:55:46;;;;;;;5.47;3.42;;;11.70;99.90;;;;;;4976839;28;96003;-76
2023/02/18 09:58:17;;;;;;;4.57;2.97;;;11.80;99.90;;;;;;4975475;28;93103;-76
2023/02/18 10:00:51;;;;;;;7.50;3.78;;;11.60;99.90;;;;;;4977650;28;92383;-77
2023/02/18 10:03:25;;;;;;;4.22;3.13;;;11.70;99.90;;;;;;4976392;28;92510;-76
2023/02/18 10:05:59;;;;;;;10.07;3.80;;;11.60;99.90;;;;;;4978323;28;93293;-76
2023/02/18 10:08:41;;;;;;;6.68;3.42;;;11.60;99.90;;;;;;4978566;28;93018;-76
2023/02/18 10:11:34;;;;;;;10.60;4.13;;;11.60;99.90;;;;;;4976764;28;92586;-76
2023/02/18 10:14:02;;;;;;;8.63;3.70;;;11.60;99.90;;;;;;4971694;28;92596;-76
2023/02/18 10:16:30;;;;;;;7.30;3.50;;;11.50;99.90;;;;;;4976659;28;95818;-76
2023/02/18 10:18:59;;;;;;;7.43;3.40;;;11.60;99.90;;;;;;4976956;28;95354;-76
2023/02/18 10:21:31;;;;;;;7.28;4.03;;;11.60;99.90;;;;;;4977956;28;92513;-76
2023/02/18 10:24:04;;;;;;;8.82;3.38;;;11.60;99.90;;;;;;4976928;28;92514;-76
2023/02/18 10:26:36;;;;;;;7.43;3.05;;;11.60;99.90;;;;;;4976806;28;93127;-76
2023/02/18 10:29:08;;;;;;;6.95;3.13;;;11.60;99.90;;;;;;4960123;28;95532;-76
2023/02/18 10:31:39;;;;;;;6.95;3.35;;;11.70;99.90;;;;;;4977022;28;92482;-76
2023/02/18 10:34:29;;;;;;;8.50;2.97;;;11.70;99.90;;;;;;4977543;28;92072;-76
2023/02/18 10:37:31;;;;;;;8.45;2.85;;;11.80;99.90;;;;;;4977881;28;93411;-76
2023/02/18 10:40:09;;;;;;;12.65;2.92;;;12.00;99.90;;;;;;4952132;28;93073;-76
2023/02/18 10:42:45;;;;;;;11.02;2.88;;;12.00;99.90;;;;;;4976755;28;95053;-76
2023/02/18 10:45:37;;;;;;;8.10;2.40;;;12.10;99.90;;;;;;4977702;28;92459;-76
2023/02/18 10:48:40;;;;;;;10.35;2.55;;;12.20;99.90;;;;;;4976035;28;96156;-76
2023/02/18 10:51:27;;;;;;;11.80;2.65;;;12.20;99.90;;;;;;4975359;28;95783;-76
2023/02/18 10:58:47;;;;;;;10.98;2.53;;;12.10;99.90;;;;;;6040709;23;87823;-75
2023/02/18 11:01:15;;;;;;;;;;;12.20;99.90;;;;;;6022633;23;87460;-75
2023/02/18 11:04:02;;;;;;;7.43;2.40;;;12.10;99.90;;;;;;6023696;23;88397;-75
2023/02/18 11:06:45;;;;;;;9.55;2.38;;;12.20;99.90;;;;;;6021626;23;90562;-75
2023/02/18 11:09:38;;;;;;;9.37;2.60;;;12.30;99.90;;;;;;6047628;23;87669;-75
2023/02/18 11:12:32;;;;;;;10.45;2.30;;;12.30;99.90;;;;;;6006420;23;90038;-76
2023/02/18 11:15:22;;;;;;;8.68;2.45;;;12.30;99.90;;;;;;5991954;23;91075;-76
2023/02/18 11:17:55;;;;;;;10.07;2.80;;;12.40;99.90;;;;;;6047715;23;87957;-76
2023/02/18 11:20:27;;;;;;;12.98;2.83;;;12.40;99.90;;;;;;6047491;23;87380;-76
2023/02/18 11:23:16;;;;;;;7.25;2.30;;;12.50;99.90;;;;;;6021357;23;89767;-76
2023/02/18 11:26:20;;;;;;;9.55;2.53;;;12.60;99.90;;;;;;6022162;23;91239;-76
2023/02/18 11:28:55;;;;;;;10.93;2.50;;;12.70;99.90;;;;;;5973398;23;87816;-76
2023/02/18 11:31:36;;;;;;;8.45;2.67;;;12.70;99.90;;;;;;6047373;23;87419;-76
2023/02/18 11:34:03;;;;;;;12.00;2.78;;;12.80;99.90;;;;;;6047497;23;87453;-76
2023/02/18 11:36:37;;;;;;;12.27;2.40;;;12.90;99.90;;;;;;5973316;23;105316;-76
2023/02/18 11:39:13;;;;;;;9.80;2.75;;;13.00;99.90;;;;;;6047648;23;87846;-76
2023/02/18 11:41:52;;;;;;;7.50;1.98;;;13.00;99.90;;;;;;6022483;23;88022;-76
2023/02/18 11:44:48;;;;;;;10.75;2.20;;;13.00;99.90;;;;;;6047495;23;87427;-76
2023/02/18 11:47:15;;;;;;;7.40;2.40;;;13.00;99.90;;;;;;6006977;23;88334;-76
2023/02/18 11:49:43;;;;;;;7.03;2.05;;;12.90;99.90;;;;;;6047510;23;87945;-76
2023/02/18 11:52:19;;;;;;;9.38;2.53;;;13.00;99.90;;;;;;6047323;23;87431;-76
2023/02/18 11:55:17;;;;;;;5.72;2.08;;;13.10;99.90;;;;;;6047392;23;87536;-76
2023/02/18 11:57:57;;;;;;;8.55;2.50;;;13.10;99.90;;;;;;6039860;23;88715;-76
2023/02/18 12:00:46;;;;;;;5.30;2.25;;;13.10;99.90;;;;;;6076468;23;88074;-76
2023/02/18 12:03:41;;;;;;;9.48;2.72;;;13.10;99.90;;;;;;6050192;23;87525;-76
2023/02/18 12:06:33;;;;;;;7.63;2.55;;;13.10;99.90;;;;;;6044140;23;89440;-76
2023/02/18 12:09:04;;;;;;;7.75;2.22;;;13.20;99.90;;;;;;5980131;23;88701;-76
2023/02/18 12:11:40;;;;;;;8.75;2.70;;;13.00;99.90;;;;;;6069868;23;87903;-76
2023/02/18 12:14:25;;;;;;;5.40;1.98;;;13.00;99.90;;;;;;6070021;23;87432;-76
2023/02/18 12:17:20;;;;;;;9.05;2.58;;;13.10;99.90;;;;;;6020082;23;89391;-76
2023/02/18 12:20:09;;;;;;;8.57;2.55;;;13.10;99.90;;;;;;6044366;23;88574;-76
2023/02/18 12:23:10;;;;;;;11.27;2.40;;;13.10;99.90;;;;;;6043766;23;90476;-76
2023/02/18 12:25:52;;;;;;;5.88;2.30;;;13.20;99.90;;;;;;5990120;23;87863;-76
2023/02/18 12:28:51;;;;;;;7.10;2.85;;;13.20;99.90;;;;;;6069995;23;87309;-76
2023/02/18 12:31:27;;;;;;;6.22;2.10;;;13.30;99.90;;;;;;6063467;23;88196;-76
2023/02/18 12:34:24;;;;;;;8.77;2.42;;;13.40;99.90;;;;;;6043944;23;90760;-75
2023/02/18 12:37:06;;;;;;;9.45;2.47;;;13.40;99.90;;;;;;6044070;23;89948;-76
2023/02/18 12:40:14;;;;;;;10.52;2.75;;;13.40;99.90;;;;;;6043638;23;89472;-76
2023/02/18 12:42:56;;;;;;;9.38;2.42;;;13.50;99.90;;;;;;6043504;23;90238;-75
2023/02/18 12:45:53;;;;;;;8.50;2.85;;;13.50;99.90;;;;;;6044101;23;87959;-75
2023/02/18 12:48:26;;;;;;;10.73;2.63;;;13.70;99.90;;;;;;6069993;23;87285;-76
2023/02/18 12:51:18;;;;;;;8.47;2.70;;;13.70;99.90;;;;;;6068144;23;89314;-76
2023/02/18 12:54:04;;;;;;;10.50;2.58;;;13.90;99.90;;;;;;6043497;23;90750;-76
2023/02/18 12:56:53;;;;;;;7.82;3.13;;;14.10;99.90;;;;;;6043399;23;90578;-76
2023/02/18 12:59:46;;;;;;;6.38;2.05;;;14.10;99.90;;;;;;6069874;23;87510;-76
2023/02/18 13:02:40;;;;;;;7.70;2.72;;;14.10;99.90;;;;;;6014917;23;88023;-76
2023/02/18 13:05:15;;;;;;;8.48;2.08;;;14.10;99.90;;;;;;6069905;23;88374;-76
2023/02/18 13:07:46;;;;;;;8.43;2.27;;;14.10;99.90;;;;;;6043393;23;90411;-76
2023/02/18 13:10:54;;;;;;;9.30;2.30;;;14.10;99.90;;;;;;6069891;23;87434;-76
2023/02/18 13:13:27;;;;;;;9.55;2.30;;;14.10;99.90;;;;;;6069904;23;87827;-76
2023/02/18 13:15:59;;;;;;;8.27;2.65;;;14.10;99.90;;;;;;6069374;23;88584;-76